Morgan, Kentucky
Current Conditions -  °F | °C
As of 5:53 AM on Monday 22 Dec 2014 (Local Time) from KLUK Reporting Station
Haze Haze  
Wind Chill: 30°   Ceiling: 5000
Heat Index: 30°   Visibility: 6mi
Dew Point: 28°   Wind: 0mph
Humidity: 92%   Direction: NA
Pressure: 30.04"   Gusts: NA
Location:  38.6506°N, 84.351°W
Report Text: KLUK 221053Z AUTO 00000KT 6SM BR OVC050 M01/M02 A3004 RMK AO2 SLP178 T10111022
Loading
Personal Weather Stations






























Interactive Weather Map New forecast layout! Learn more

10-Day Weather Forecast

Advertisements
Track Severe Weather on mobile